Time;durP1;ratioP1;P1;durP2;ratioP2;P2;SDS_P1;SDS_P2;PMS_P1;PMS_P2;Temp;Humidity;BMP_temperature;BMP_pressure;BME280_temperature;BME280_humidity;BME280_pressure;Samples;Min_cycle;Max_cycle;Signal;HPM_P1;HPM_P2
2022/04/17 00:02:10;;;;;;;0.82;0.60;;;;;;;;;;6205452;23;19997;-54
2022/04/17 00:04:36;;;;;;;0.80;0.60;;;;;;;;;;6178724;23;20020;-54
2022/04/17 00:07:02;;;;;;;1.05;0.88;;;;;;;;;;6204811;23;20445;-54
2022/04/17 00:09:28;;;;;;;0.70;0.70;;;;;;;;;;6178906;23;20035;-54
2022/04/17 00:11:54;;;;;;;0.75;0.70;;;;;;;;;;6205857;23;20005;-56
2022/04/17 00:14:21;;;;;;;1.20;0.80;;;;;;;;;;6206346;23;20481;-54
2022/04/17 00:16:47;;;;;;;0.60;0.60;;;;;;;;;;6205305;23;20001;-55
2022/04/17 00:19:13;;;;;;;0.55;0.55;;;;;;;;;;6204970;23;20402;-54
2022/04/17 00:21:40;;;;;;;0.60;0.60;;;;;;;;;;6205047;23;20005;-55
2022/04/17 00:24:08;;;;;;;0.60;0.60;;;;;;;;;;6204234;23;20048;-54
2022/04/17 00:26:34;;;;;;;0.60;0.60;;;;;;;;;;6205475;23;20004;-54
2022/04/17 00:29:00;;;;;;;0.93;0.60;;;;;;;;;;6205580;23;20035;-54
2022/04/17 00:31:27;;;;;;;0.63;0.60;;;;;;;;;;6207248;23;20029;-55
2022/04/17 00:33:53;;;;;;;0.60;0.60;;;;;;;;;;6208315;23;20078;-55
2022/04/17 00:36:19;;;;;;;0.50;0.50;;;;;;;;;;6207158;23;20438;-55
2022/04/17 00:38:45;;;;;;;1.27;0.90;;;;;;;;;;6207597;23;20001;-54
2022/04/17 00:41:11;;;;;;;0.52;0.52;;;;;;;;;;6207344;23;20436;-54
2022/04/17 00:43:44;;;;;;;0.63;0.63;;;;;;;;;;6178910;23;20362;-54
2022/04/17 00:46:10;;;;;;;0.70;0.57;;;;;;;;;;6206858;23;20005;-53
2022/04/17 00:48:36;;;;;;;1.02;0.90;;;;;;;;;;6206455;23;20311;-55
2022/04/17 00:51:02;;;;;;;0.65;0.65;;;;;;;;;;6204857;23;20062;-54
2022/04/17 00:53:28;;;;;;;0.40;0.40;;;;;;;;;;6205288;23;20294;-55
2022/04/17 00:55:55;;;;;;;1.00;0.60;;;;;;;;;;6204587;23;20009;-53
2022/04/17 00:58:22;;;;;;;0.60;0.60;;;;;;;;;;6205718;23;20001;-55
2022/04/17 01:00:48;;;;;;;0.60;0.60;;;;;;;;;;6178403;23;20058;-55
2022/04/17 01:03:15;;;;;;;0.60;0.60;;;;;;;;;;6204446;23;20135;-54
2022/04/17 01:05:43;;;;;;;0.75;0.70;;;;;;;;;;6205198;23;19996;-54
2022/04/17 01:08:12;;;;;;;0.70;0.65;;;;;;;;;;6204038;23;20004;-52
2022/04/17 01:10:39;;;;;;;0.73;0.68;;;;;;;;;;6205434;23;20028;-54
2022/04/17 01:13:08;;;;;;;0.65;0.60;;;;;;;;;;6204698;23;20462;-54
2022/04/17 01:15:35;;;;;;;0.68;0.68;;;;;;;;;;6205032;23;20434;-53
2022/04/17 01:18:01;;;;;;;0.60;0.60;;;;;;;;;;6203640;23;20010;-53
2022/04/17 01:20:27;;;;;;;0.70;0.60;;;;;;;;;;6204595;23;20005;-51
2022/04/17 01:26:56;;;;;;;0.63;0.63;;;;;;;;;;6205673;23;20063;-53
2022/04/17 01:28:39;;;;;;;0.93;0.68;;;;;;;;;;6096322;23;20015;-57
2022/04/17 01:31:05;;;;;;;0.70;0.70;;;;;;;;;;6204931;23;20458;-57
2022/04/17 01:33:33;;;;;;;0.70;0.70;;;;;;;;;;6205732;23;20054;-57
2022/04/17 01:35:59;;;;;;;0.50;0.50;;;;;;;;;;6205631;23;20016;-57
2022/04/17 01:38:25;;;;;;;0.70;0.63;;;;;;;;;;6205833;23;20013;-57
2022/04/17 01:40:52;;;;;;;0.80;0.75;;;;;;;;;;6206256;23;20001;-57
2022/04/17 01:43:18;;;;;;;0.70;0.70;;;;;;;;;;6205425;23;20421;-57
2022/04/17 01:45:44;;;;;;;0.90;0.90;;;;;;;;;;6205302;23;20470;-57
2022/04/17 01:48:10;;;;;;;0.85;0.73;;;;;;;;;;6205397;23;20208;-57
2022/04/17 01:50:37;;;;;;;0.70;0.70;;;;;;;;;;6204988;23;20000;-57
2022/04/17 01:53:03;;;;;;;1.13;0.80;;;;;;;;;;6205420;23;19996;-57
2022/04/17 01:55:30;;;;;;;0.73;0.73;;;;;;;;;;6205557;23;20007;-57
2022/04/17 01:57:57;;;;;;;1.88;0.68;;;;;;;;;;6205123;23;20000;-57
2022/04/17 02:00:24;;;;;;;0.80;0.80;;;;;;;;;;6205683;23;20008;-57
2022/04/17 02:02:50;;;;;;;1.05;0.80;;;;;;;;;;6205429;23;20082;-57
2022/04/17 02:05:16;;;;;;;3.10;0.80;;;;;;;;;;6205022;23;20454;-57
2022/04/17 02:07:42;;;;;;;0.70;0.70;;;;;;;;;;6205185;23;20003;-57
2022/04/17 02:10:08;;;;;;;0.95;0.95;;;;;;;;;;6204892;23;20079;-57
2022/04/17 02:12:36;;;;;;;0.80;0.80;;;;;;;;;;6206030;23;20044;-57
2022/04/17 02:15:03;;;;;;;1.08;0.80;;;;;;;;;;6204813;23;20005;-57
2022/04/17 02:17:30;;;;;;;0.80;0.73;;;;;;;;;;6204542;23;20001;-57
2022/04/17 02:19:58;;;;;;;1.00;0.82;;;;;;;;;;6205184;23;20076;-58
2022/04/17 02:22:24;;;;;;;0.85;0.80;;;;;;;;;;6205818;23;20004;-57
2022/04/17 02:24:50;;;;;;;0.80;0.80;;;;;;;;;;6206330;23;20005;-57
2022/04/17 02:27:16;;;;;;;0.80;0.73;;;;;;;;;;6178043;23;20358;-57
2022/04/17 02:29:42;;;;;;;0.75;0.75;;;;;;;;;;6205195;23;20083;-57
2022/04/17 02:32:08;;;;;;;0.70;0.70;;;;;;;;;;6204177;23;20410;-57
2022/04/17 02:34:34;;;;;;;0.70;0.70;;;;;;;;;;6205261;23;20032;-57
2022/04/17 02:37:00;;;;;;;0.60;0.60;;;;;;;;;;6178181;23;20012;-57
2022/04/17 02:39:27;;;;;;;0.85;0.60;;;;;;;;;;6205088;23;20039;-58
2022/04/17 02:41:54;;;;;;;0.63;0.63;;;;;;;;;;6178975;23;20415;-57
2022/04/17 02:44:20;;;;;;;0.73;0.73;;;;;;;;;;6205564;23;20247;-57
2022/04/17 02:49:31;;;;;;;1.08;0.90;;;;;;;;;;6205129;23;20016;-57
2022/04/17 02:51:58;;;;;;;0.80;0.80;;;;;;;;;;6205100;23;20004;-57
2022/04/17 02:54:25;;;;;;;1.00;0.93;;;;;;;;;;6204933;23;20019;-57
2022/04/17 02:56:51;;;;;;;1.02;0.90;;;;;;;;;;6205631;23;20011;-57
2022/04/17 02:59:17;;;;;;;0.98;0.82;;;;;;;;;;6204641;23;20031;-57
2022/04/17 03:07:13;;;;;;;;;;;;;;;;;;6205171;23;20051;-57
2022/04/17 03:09:39;;;;;;;1.55;1.10;;;;;;;;;;6205073;23;19990;-57
2022/04/17 03:12:06;;;;;;;1.00;0.85;;;;;;;;;;6205030;23;20008;-56
2022/04/17 03:14:32;;;;;;;0.80;0.80;;;;;;;;;;6206935;23;20004;-57
2022/04/17 03:16:59;;;;;;;1.10;0.90;;;;;;;;;;6206523;23;20075;-57
2022/04/17 03:19:25;;;;;;;1.40;1.30;;;;;;;;;;6207308;23;20093;-57
2022/04/17 03:21:52;;;;;;;2.35;0.98;;;;;;;;;;6207700;23;20004;-57
2022/04/17 03:24:18;;;;;;;1.10;0.90;;;;;;;;;;6206138;23;20401;-57
2022/04/17 03:26:44;;;;;;;0.93;0.80;;;;;;;;;;6206929;23;20455;-57
2022/04/17 03:29:11;;;;;;;0.95;0.95;;;;;;;;;;6206302;23;20281;-57
2022/04/17 03:31:38;;;;;;;1.88;1.00;;;;;;;;;;6206940;23;20314;-57
2022/04/17 03:34:06;;;;;;;1.20;1.10;;;;;;;;;;6206022;23;20004;-56
2022/04/17 03:36:34;;;;;;;1.02;0.90;;;;;;;;;;6206850;23;20005;-57
2022/04/17 03:39:00;;;;;;;1.38;0.98;;;;;;;;;;6206128;23;20008;-57
2022/04/17 03:41:27;;;;;;;1.00;0.90;;;;;;;;;;6206610;23;20079;-57
2022/04/17 03:43:53;;;;;;;0.95;0.90;;;;;;;;;;6207176;23;20023;-57
2022/04/17 03:46:19;;;;;;;1.02;0.93;;;;;;;;;;6206763;23;20052;-57
2022/04/17 03:48:46;;;;;;;0.80;0.80;;;;;;;;;;6206668;23;20041;-57
2022/04/17 03:51:12;;;;;;;1.08;0.98;;;;;;;;;;6206383;23;20005;-57
2022/04/17 03:53:39;;;;;;;0.85;0.80;;;;;;;;;;6206437;23;20319;-57
2022/04/17 03:56:05;;;;;;;0.80;0.70;;;;;;;;;;6205920;23;20005;-57
2022/04/17 03:58:31;;;;;;;2.05;0.80;;;;;;;;;;6206539;23;20034;-57
2022/04/17 04:00:58;;;;;;;1.17;1.08;;;;;;;;;;6205699;23;20009;-57
2022/04/17 04:03:24;;;;;;;0.93;0.88;;;;;;;;;;6206886;23;20008;-57
2022/04/17 04:05:49;;;;;;;1.15;1.05;;;;;;;;;;6207357;23;19996;-57
2022/04/17 04:08:16;;;;;;;2.58;0.98;;;;;;;;;;6205576;23;20469;-57
2022/04/17 04:10:43;;;;;;;0.80;0.80;;;;;;;;;;6206153;23;20083;-57
2022/04/17 04:13:09;;;;;;;0.95;0.88;;;;;;;;;;6206415;23;20071;-56
2022/04/17 04:15:36;;;;;;;0.93;0.85;;;;;;;;;;6206241;23;20028;-57
2022/04/17 04:18:03;;;;;;;1.23;0.90;;;;;;;;;;6205478;23;20001;-57
2022/04/17 04:20:29;;;;;;;1.52;1.27;;;;;;;;;;6206293;23;20059;-56
2022/04/17 04:22:56;;;;;;;1.38;1.27;;;;;;;;;;6205997;23;20000;-57
2022/04/17 04:25:22;;;;;;;1.20;1.10;;;;;;;;;;6206838;23;20001;-57
2022/04/17 04:30:34;;;;;;;1.10;1.00;;;;;;;;;;6206037;23;20028;-57
2022/04/17 04:33:01;;;;;;;1.55;1.10;;;;;;;;;;6206122;23;20024;-57
2022/04/17 04:35:29;;;;;;;2.05;1.13;;;;;;;;;;6206622;23;20023;-57
2022/04/17 04:37:56;;;;;;;0.95;0.90;;;;;;;;;;6205861;23;20457;-58
2022/04/17 04:40:23;;;;;;;1.65;1.10;;;;;;;;;;6206657;23;20015;-57
2022/04/17 04:42:57;;;;;;;0.70;0.70;;;;;;;;;;6206681;23;20395;-56
2022/04/17 04:48:07;;;;;;;1.27;1.15;;;;;;;;;;6205649;23;19946;-57
2022/04/17 04:50:34;;;;;;;1.17;1.00;;;;;;;;;;6205830;23;20004;-57
2022/04/17 04:53:01;;;;;;;1.80;0.93;;;;;;;;;;6205417;23;20408;-57
2022/04/17 04:55:27;;;;;;;0.80;0.80;;;;;;;;;;6206206;23;20389;-57
2022/04/17 04:57:53;;;;;;;1.13;1.00;;;;;;;;;;6206645;23;20011;-57
2022/04/17 05:00:21;;;;;;;1.00;0.85;;;;;;;;;;6206188;23;20012;-57
2022/04/17 05:02:47;;;;;;;1.17;1.05;;;;;;;;;;6206139;23;20001;-57
2022/04/17 05:05:14;;;;;;;1.60;1.00;;;;;;;;;;6205376;23;20009;-57
2022/04/17 05:07:40;;;;;;;1.20;1.05;;;;;;;;;;6205312;23;20001;-57
2022/04/17 05:10:07;;;;;;;0.80;0.80;;;;;;;;;;6205373;23;20039;-57
2022/04/17 05:12:33;;;;;;;0.93;0.90;;;;;;;;;;6206156;23;20349;-57
2022/04/17 05:15:00;;;;;;;1.10;1.00;;;;;;;;;;6205686;23;20063;-57
2022/04/17 05:17:26;;;;;;;0.90;0.90;;;;;;;;;;6205951;23;20008;-57
2022/04/17 05:19:52;;;;;;;1.05;0.93;;;;;;;;;;6206287;23;20214;-57
2022/04/17 05:22:20;;;;;;;0.95;0.95;;;;;;;;;;6205001;23;20079;-57
2022/04/17 05:24:47;;;;;;;1.13;0.98;;;;;;;;;;6205570;23;20350;-57
2022/04/17 05:27:14;;;;;;;1.05;0.95;;;;;;;;;;6205692;23;20001;-56
2022/04/17 05:29:42;;;;;;;1.83;0.90;;;;;;;;;;6205393;23;20455;-57
2022/04/17 05:32:09;;;;;;;1.10;1.00;;;;;;;;;;6205176;23;20009;-57
2022/04/17 05:34:35;;;;;;;1.95;1.10;;;;;;;;;;6205268;23;20450;-56
2022/04/17 05:37:03;;;;;;;1.17;1.08;;;;;;;;;;6205175;23;20504;-57
2022/04/17 05:39:29;;;;;;;0.82;0.82;;;;;;;;;;6178641;23;20009;-57
2022/04/17 05:41:56;;;;;;;1.15;1.05;;;;;;;;;;6205938;23;20000;-57
2022/04/17 05:44:22;;;;;;;0.95;0.80;;;;;;;;;;6205296;23;20005;-57
2022/04/17 05:46:49;;;;;;;0.82;0.70;;;;;;;;;;6205658;23;20035;-57
2022/04/17 05:49:15;;;;;;;1.05;0.95;;;;;;;;;;6206926;23;20004;-57
2022/04/17 05:51:41;;;;;;;0.98;0.75;;;;;;;;;;6207715;23;20008;-57
2022/04/17 05:54:07;;;;;;;0.98;0.90;;;;;;;;;;6207083;23;20009;-57
2022/04/17 05:56:34;;;;;;;0.80;0.80;;;;;;;;;;6206015;23;20015;-57
2022/04/17 05:59:01;;;;;;;1.00;0.90;;;;;;;;;;6205187;23;20009;-57
2022/04/17 06:01:29;;;;;;;1.42;1.30;;;;;;;;;;6205414;23;20004;-57
2022/04/17 06:03:55;;;;;;;1.08;0.98;;;;;;;;;;6205469;23;20017;-57
2022/04/17 06:06:21;;;;;;;1.08;1.00;;;;;;;;;;6206246;23;20035;-57
2022/04/17 06:08:48;;;;;;;1.33;1.20;;;;;;;;;;6205787;23;20389;-57
2022/04/17 06:11:14;;;;;;;1.15;1.05;;;;;;;;;;6205138;23;20008;-57
2022/04/17 06:13:41;;;;;;;1.33;1.23;;;;;;;;;;6205412;23;20036;-57
2022/04/17 06:16:07;;;;;;;1.00;0.93;;;;;;;;;;6205058;23;20007;-57
2022/04/17 06:18:34;;;;;;;1.20;1.10;;;;;;;;;;6205278;23;20028;-56
2022/04/17 06:21:00;;;;;;;1.23;1.13;;;;;;;;;;6205233;23;20025;-57
2022/04/17 06:23:27;;;;;;;1.23;1.10;;;;;;;;;;6205273;23;20072;-57
2022/04/17 06:25:54;;;;;;;1.15;0.90;;;;;;;;;;6207670;23;20004;-57
2022/04/17 06:28:20;;;;;;;1.10;1.00;;;;;;;;;;6207095;23;20005;-57
2022/04/17 06:30:46;;;;;;;1.95;0.90;;;;;;;;;;6207014;23;20323;-57
2022/04/17 06:33:12;;;;;;;1.13;0.95;;;;;;;;;;6206689;23;20019;-57
2022/04/17 06:35:38;;;;;;;1.23;1.10;;;;;;;;;;6206209;23;20072;-57
2022/04/17 06:38:06;;;;;;;1.45;1.20;;;;;;;;;;6205757;23;20076;-57
2022/04/17 06:40:33;;;;;;;1.30;1.02;;;;;;;;;;6206955;23;20103;-57
2022/04/17 06:43:05;;;;;;;1.15;1.05;;;;;;;;;;6206716;23;20005;-57
2022/04/17 06:45:31;;;;;;;1.42;1.15;;;;;;;;;;6207263;23;20426;-57
2022/04/17 06:47:57;;;;;;;1.00;0.90;;;;;;;;;;6181470;23;20027;-57
2022/04/17 06:50:24;;;;;;;1.17;1.08;;;;;;;;;;6208986;23;20079;-56
2022/04/17 06:52:50;;;;;;;1.02;0.80;;;;;;;;;;6210139;23;20063;-56
2022/04/17 06:55:16;;;;;;;0.80;0.80;;;;;;;;;;6208438;23;20461;-57
2022/04/17 06:57:47;;;;;;;0.93;0.90;;;;;;;;;;6181277;23;20381;-57
2022/04/17 07:00:13;;;;;;;1.10;1.00;;;;;;;;;;6207206;23;20442;-57
2022/04/17 07:02:40;;;;;;;1.15;1.00;;;;;;;;;;6208425;23;20159;-57
2022/04/17 07:05:06;;;;;;;7.30;3.55;;;;;;;;;;6208875;23;20008;-57
2022/04/17 07:07:33;;;;;;;12.10;6.63;;;;;;;;;;6208737;23;19996;-57
2022/04/17 07:10:00;;;;;;;7.93;4.80;;;;;;;;;;6208994;23;20319;-57
2022/04/17 07:12:26;;;;;;;6.68;4.03;;;;;;;;;;6208909;23;20075;-57
2022/04/17 07:14:52;;;;;;;6.57;3.60;;;;;;;;;;6209620;23;20008;-56
2022/04/17 07:17:20;;;;;;;3.35;2.45;;;;;;;;;;6207278;23;20004;-57
2022/04/17 07:19:46;;;;;;;3.50;2.40;;;;;;;;;;6207884;23;20001;-56
2022/04/17 07:22:13;;;;;;;3.28;1.85;;;;;;;;;;6207484;23;20076;-57
2022/04/17 07:24:40;;;;;;;1.75;1.60;;;;;;;;;;6208685;23;20005;-57
2022/04/17 07:27:07;;;;;;;2.00;1.63;;;;;;;;;;6181561;23;20008;-58
2022/04/17 07:29:33;;;;;;;1.75;1.48;;;;;;;;;;6208783;23;20011;-58
2022/04/17 07:31:59;;;;;;;1.45;1.35;;;;;;;;;;6208726;23;20065;-58
2022/04/17 07:34:26;;;;;;;1.88;1.58;;;;;;;;;;6208833;23;20450;-58
2022/04/17 07:36:54;;;;;;;1.85;1.38;;;;;;;;;;6209477;23;20066;-58
2022/04/17 07:39:22;;;;;;;1.10;0.98;;;;;;;;;;6207854;23;20012;-59
2022/04/17 07:41:48;;;;;;;2.67;0.90;;;;;;;;;;6206595;23;20362;-58
2022/04/17 07:44:14;;;;;;;1.25;1.13;;;;;;;;;;6207811;23;20011;-58
2022/04/17 07:46:42;;;;;;;1.30;1.10;;;;;;;;;;6209455;23;20004;-58
2022/04/17 07:49:08;;;;;;;1.13;1.02;;;;;;;;;;6209116;23;20011;-58
2022/04/17 07:51:34;;;;;;;1.27;1.10;;;;;;;;;;6208989;23;20075;-58
2022/04/17 07:54:01;;;;;;;1.25;1.15;;;;;;;;;;6208274;23;20375;-58
2022/04/17 07:56:27;;;;;;;1.10;1.00;;;;;;;;;;6209112;23;20004;-59
2022/04/17 07:58:54;;;;;;;1.35;1.20;;;;;;;;;;6209443;23;20031;-58
2022/04/17 08:01:20;;;;;;;1.27;1.00;;;;;;;;;;6209838;23;20084;-58
2022/04/17 08:03:46;;;;;;;1.45;1.35;;;;;;;;;;6208716;23;20039;-58
2022/04/17 08:06:16;;;;;;;1.10;1.00;;;;;;;;;;6206803;23;20046;-58
2022/04/17 08:08:43;;;;;;;0.70;0.70;;;;;;;;;;6180685;23;20004;-58
2022/04/17 08:11:09;;;;;;;1.02;0.70;;;;;;;;;;6207104;23;20008;-58
2022/04/17 08:13:36;;;;;;;0.90;0.90;;;;;;;;;;6181406;23;20012;-58
2022/04/17 08:16:04;;;;;;;1.08;0.95;;;;;;;;;;6207455;23;20004;-58
2022/04/17 08:18:31;;;;;;;1.05;0.90;;;;;;;;;;6207482;23;20016;-58
2022/04/17 08:20:57;;;;;;;1.23;1.00;;;;;;;;;;6207620;23;20003;-58
2022/04/17 08:23:23;;;;;;;1.15;1.05;;;;;;;;;;6207921;23;20585;-58
2022/04/17 08:25:49;;;;;;;1.58;1.42;;;;;;;;;;6207095;23;20016;-58
2022/04/17 08:28:15;;;;;;;1.05;1.00;;;;;;;;;;6204334;23;20008;-58
2022/04/17 08:30:42;;;;;;;1.15;1.05;;;;;;;;;;6207446;23;20000;-58
2022/04/17 08:33:08;;;;;;;1.20;1.10;;;;;;;;;;6207286;23;20072;-58
2022/04/17 08:35:35;;;;;;;0.77;0.77;;;;;;;;;;6206569;23;20001;-58
2022/04/17 08:38:01;;;;;;;1.05;0.98;;;;;;;;;;6205630;23;20110;-58
2022/04/17 08:40:30;;;;;;;1.20;1.10;;;;;;;;;;6207483;23;20521;-58
2022/04/17 08:42:56;;;;;;;1.00;0.90;;;;;;;;;;6207327;23;20027;-59
2022/04/17 08:45:23;;;;;;;1.10;1.00;;;;;;;;;;6207820;23;20004;-58
2022/04/17 08:47:50;;;;;;;1.17;1.00;;;;;;;;;;6207148;23;20063;-58
2022/04/17 08:50:18;;;;;;;1.02;0.82;;;;;;;;;;6206593;23;20412;-58
2022/04/17 08:52:47;;;;;;;0.90;0.90;;;;;;;;;;6207686;23;20004;-58
2022/04/17 08:55:14;;;;;;;1.70;0.80;;;;;;;;;;6207228;23;20419;-58
2022/04/17 08:57:40;;;;;;;1.40;0.80;;;;;;;;;;6207440;23;20722;-58
2022/04/17 09:00:08;;;;;;;1.17;0.80;;;;;;;;;;6207301;23;20004;-58
2022/04/17 09:02:35;;;;;;;1.10;1.00;;;;;;;;;;6207340;23;20005;-58
2022/04/17 09:05:09;;;;;;;0.80;0.80;;;;;;;;;;6157553;23;1179200;-58
2022/04/17 09:07:49;;;;;;;1.10;1.00;;;;;;;;;;6208400;23;20075;-58
2022/04/17 09:10:25;;;;;;;1.00;0.80;;;;;;;;;;6208148;23;20450;-58
2022/04/17 09:12:53;;;;;;;1.13;0.90;;;;;;;;;;6208099;23;20362;-59
2022/04/17 09:15:22;;;;;;;1.45;1.10;;;;;;;;;;6206977;23;20009;-58
2022/04/17 09:17:49;;;;;;;1.08;0.98;;;;;;;;;;6208287;23;20358;-58
2022/04/17 09:20:19;;;;;;;1.05;0.95;;;;;;;;;;6207471;23;20012;-59
2022/04/17 09:22:46;;;;;;;0.73;0.73;;;;;;;;;;6207749;23;20002;-58
2022/04/17 09:25:13;;;;;;;0.88;0.85;;;;;;;;;;6208347;23;20051;-58
2022/04/17 09:27:42;;;;;;;1.13;1.02;;;;;;;;;;6208322;23;20083;-58
2022/04/17 09:30:24;;;;;;;1.00;0.90;;;;;;;;;;6208318;23;20379;-58
2022/04/17 09:32:53;;;;;;;1.13;1.02;;;;;;;;;;6207810;23;20009;-59
2022/04/17 09:35:23;;;;;;;1.10;1.00;;;;;;;;;;6208937;23;20055;-59
2022/04/17 09:37:49;;;;;;;0.75;0.73;;;;;;;;;;6208078;23;20008;-59
2022/04/17 09:40:18;;;;;;;1.42;0.93;;;;;;;;;;6207179;23;20087;-58
2022/04/17 09:42:47;;;;;;;1.20;0.90;;;;;;;;;;6208559;23;20001;-58
2022/04/17 09:45:13;;;;;;;0.77;0.77;;;;;;;;;;6208236;23;20001;-58
2022/04/17 09:47:39;;;;;;;0.70;0.70;;;;;;;;;;6207440;23;20032;-58
2022/04/17 09:50:06;;;;;;;1.00;0.80;;;;;;;;;;6207705;23;20004;-58
2022/04/17 09:52:33;;;;;;;0.80;0.80;;;;;;;;;;6208301;23;20000;-58
2022/04/17 09:55:00;;;;;;;0.70;0.70;;;;;;;;;;6208544;23;20047;-59
2022/04/17 09:57:28;;;;;;;1.00;0.90;;;;;;;;;;6208249;23;20030;-59
2022/04/17 09:59:55;;;;;;;1.05;0.98;;;;;;;;;;6208466;23;20096;-59
2022/04/17 10:02:21;;;;;;;0.70;0.70;;;;;;;;;;6208746;23;20008;-59
2022/04/17 10:04:47;;;;;;;1.02;0.77;;;;;;;;;;6208386;23;20074;-59
2022/04/17 10:07:14;;;;;;;0.80;0.80;;;;;;;;;;6208111;23;19997;-59
2022/04/17 10:09:42;;;;;;;0.85;0.85;;;;;;;;;;6208439;23;20016;-59
2022/04/17 10:12:08;;;;;;;1.10;1.00;;;;;;;;;;6207915;23;20005;-59
2022/04/17 10:14:36;;;;;;;2.22;1.55;;;;;;;;;;6207984;23;20024;-59
2022/04/17 10:17:04;;;;;;;0.88;0.73;;;;;;;;;;6207848;23;20089;-59
2022/04/17 10:19:31;;;;;;;0.70;0.70;;;;;;;;;;6207951;23;20091;-59
2022/04/17 10:22:01;;;;;;;0.88;0.75;;;;;;;;;;6208218;23;20008;-59
2022/04/17 10:24:27;;;;;;;1.60;1.50;;;;;;;;;;6208266;23;20026;-59
2022/04/17 10:26:54;;;;;;;1.35;1.23;;;;;;;;;;6208249;23;20397;-59
2022/04/17 10:29:32;;;;;;;1.20;1.00;;;;;;;;;;6208355;23;20378;-59
2022/04/17 10:32:04;;;;;;;1.00;0.90;;;;;;;;;;6207974;23;20008;-59
2022/04/17 10:34:51;;;;;;;1.30;1.20;;;;;;;;;;6208128;23;20423;-59
2022/04/17 10:37:24;;;;;;;1.60;1.27;;;;;;;;;;6207524;23;20080;-60
2022/04/17 10:39:54;;;;;;;0.90;0.90;;;;;;;;;;6207541;23;20458;-59
2022/04/17 10:42:22;;;;;;;1.38;1.00;;;;;;;;;;6207542;23;20008;-59
2022/04/17 10:45:02;;;;;;;1.85;1.40;;;;;;;;;;6207974;23;20028;-59
2022/04/17 10:47:30;;;;;;;1.30;1.10;;;;;;;;;;6208219;23;20011;-59
2022/04/17 10:49:57;;;;;;;1.20;1.10;;;;;;;;;;6207888;23;20354;-59
2022/04/17 10:52:32;;;;;;;1.00;0.90;;;;;;;;;;6207971;23;20013;-59
2022/04/17 10:55:12;;;;;;;1.13;1.02;;;;;;;;;;6207144;23;20017;-60
2022/04/17 10:57:50;;;;;;;0.98;0.90;;;;;;;;;;6207253;23;20434;-60
2022/04/17 11:00:36;;;;;;;1.13;1.00;;;;;;;;;;6206625;23;20043;-60
2022/04/17 11:03:09;;;;;;;0.95;0.85;;;;;;;;;;6206825;23;20035;-60
2022/04/17 11:08:21;;;;;;;0.70;0.70;;;;;;;;;;6206612;23;20084;-60
2022/04/17 11:10:52;;;;;;;0.88;0.85;;;;;;;;;;6207561;23;20454;-60
2022/04/17 11:13:18;;;;;;;0.70;0.70;;;;;;;;;;6207639;23;20454;-60
2022/04/17 11:15:49;;;;;;;0.75;0.75;;;;;;;;;;6207227;23;20068;-60
2022/04/17 11:18:20;;;;;;;0.93;0.90;;;;;;;;;;6206572;23;20023;-60
2022/04/17 11:20:51;;;;;;;0.80;0.73;;;;;;;;;;6207493;23;20001;-60
2022/04/17 11:23:38;;;;;;;0.70;0.70;;;;;;;;;;6205920;23;20008;-60
2022/04/17 11:26:04;;;;;;;0.95;0.90;;;;;;;;;;6180377;23;20036;-60
2022/04/17 11:28:34;;;;;;;1.00;0.90;;;;;;;;;;6206164;23;20001;-60
2022/04/17 11:31:00;;;;;;;1.00;0.90;;;;;;;;;;6205892;23;20012;-60
2022/04/17 11:33:26;;;;;;;1.48;1.10;;;;;;;;;;6206748;23;20468;-60
2022/04/17 11:35:52;;;;;;;1.35;1.10;;;;;;;;;;6209550;23;20000;-60
2022/04/17 11:38:18;;;;;;;1.13;1.02;;;;;;;;;;6208298;23;20445;-60
2022/04/17 11:40:48;;;;;;;0.90;0.90;;;;;;;;;;6207369;23;20476;-60
2022/04/17 11:43:15;;;;;;;0.95;0.75;;;;;;;;;;6208549;23;20024;-60
2022/04/17 11:45:42;;;;;;;0.90;0.90;;;;;;;;;;6209371;23;20000;-60
2022/04/17 11:48:10;;;;;;;1.13;1.02;;;;;;;;;;6208512;23;20012;-60
2022/04/17 11:50:36;;;;;;;1.10;1.00;;;;;;;;;;6208836;23;20477;-60
2022/04/17 11:53:05;;;;;;;1.30;1.17;;;;;;;;;;6182063;23;20015;-60
2022/04/17 11:55:32;;;;;;;1.85;1.23;;;;;;;;;;6208859;23;20008;-60
2022/04/17 11:57:59;;;;;;;1.13;0.82;;;;;;;;;;6182388;23;20493;-60
2022/04/17 12:00:26;;;;;;;1.20;0.80;;;;;;;;;;6208920;23;20005;-60
2022/04/17 12:02:59;;;;;;;1.35;1.08;;;;;;;;;;6209992;23;20001;-60
2022/04/17 12:05:26;;;;;;;0.70;0.70;;;;;;;;;;6208950;23;20008;-59
2022/04/17 12:08:02;;;;;;;1.10;0.90;;;;;;;;;;6210130;23;20028;-59
2022/04/17 12:10:28;;;;;;;0.80;0.80;;;;;;;;;;6209154;23;20454;-58
2022/04/17 12:12:55;;;;;;;0.70;0.70;;;;;;;;;;6209421;23;20004;-58
2022/04/17 12:15:22;;;;;;;0.85;0.80;;;;;;;;;;6209477;23;20043;-58
2022/04/17 12:17:57;;;;;;;0.80;0.80;;;;;;;;;;6182002;23;20012;-58
2022/04/17 12:20:23;;;;;;;0.93;0.80;;;;;;;;;;6209009;23;20004;-58
2022/04/17 12:22:49;;;;;;;0.80;0.80;;;;;;;;;;6182698;23;20016;-58
2022/04/17 12:25:16;;;;;;;0.90;0.90;;;;;;;;;;6208159;23;20008;-58
2022/04/17 12:27:42;;;;;;;0.73;0.73;;;;;;;;;;6208738;23;20004;-58
2022/04/17 12:30:09;;;;;;;0.60;0.60;;;;;;;;;;6208538;23;20075;-58
2022/04/17 12:32:42;;;;;;;0.80;0.80;;;;;;;;;;6209080;23;20011;-58
2022/04/17 12:35:09;;;;;;;1.40;1.13;;;;;;;;;;6208497;23;20064;-58
2022/04/17 12:37:35;;;;;;;1.17;1.08;;;;;;;;;;6209113;23;20008;-58
2022/04/17 12:40:12;;;;;;;1.38;1.13;;;;;;;;;;6207980;23;20091;-58
2022/04/17 12:42:39;;;;;;;0.98;0.88;;;;;;;;;;6208148;23;20035;-58
2022/04/17 12:45:05;;;;;;;1.27;1.17;;;;;;;;;;6207692;23;20047;-58
2022/04/17 12:47:32;;;;;;;1.05;0.95;;;;;;;;;;6208100;23;20000;-57
2022/04/17 12:50:05;;;;;;;0.70;0.70;;;;;;;;;;6208377;23;20036;-58
2022/04/17 12:52:31;;;;;;;0.63;0.63;;;;;;;;;;6208867;23;20015;-58
2022/04/17 12:54:59;;;;;;;0.98;0.85;;;;;;;;;;6208904;23;20005;-58
2022/04/17 12:57:26;;;;;;;0.73;0.73;;;;;;;;;;6208846;23;20008;-59
2022/04/17 12:59:52;;;;;;;1.13;1.02;;;;;;;;;;6209139;23;20013;-58
2022/04/17 13:02:22;;;;;;;1.25;1.15;;;;;;;;;;6207950;23;20000;-58
2022/04/17 13:04:48;;;;;;;0.85;0.80;;;;;;;;;;6208329;23;20008;-58
2022/04/17 13:07:16;;;;;;;1.23;1.13;;;;;;;;;;6208058;23;20099;-58
2022/04/17 13:09:59;;;;;;;1.00;0.90;;;;;;;;;;6208129;23;20016;-58
2022/04/17 13:12:35;;;;;;;0.93;0.82;;;;;;;;;;6207884;23;20004;-58
2022/04/17 13:15:02;;;;;;;0.65;0.65;;;;;;;;;;6207759;23;20450;-58
2022/04/17 13:17:28;;;;;;;1.67;1.00;;;;;;;;;;6207971;23;20469;-58
2022/04/17 13:19:54;;;;;;;0.80;0.80;;;;;;;;;;6208139;23;20024;-58
2022/04/17 13:22:20;;;;;;;1.10;0.88;;;;;;;;;;6208728;23;20012;-58
2022/04/17 13:24:47;;;;;;;1.15;1.05;;;;;;;;;;6208136;23;20080;-57
2022/04/17 13:27:13;;;;;;;0.80;0.80;;;;;;;;;;6207509;23;20565;-58
2022/04/17 13:29:39;;;;;;;1.10;1.00;;;;;;;;;;6207790;23;20434;-58
2022/04/17 13:32:09;;;;;;;0.70;0.70;;;;;;;;;;6207761;23;20079;-57
2022/04/17 13:34:36;;;;;;;0.68;0.68;;;;;;;;;;6207500;23;20653;-57
2022/04/17 13:39:48;;;;;;;0.93;0.63;;;;;;;;;;6207004;23;20102;-57
2022/04/17 13:42:14;;;;;;;0.70;0.70;;;;;;;;;;6207280;23;20028;-58
2022/04/17 13:44:40;;;;;;;0.90;0.70;;;;;;;;;;6207964;23;20012;-58
2022/04/17 13:47:07;;;;;;;0.80;0.80;;;;;;;;;;6207666;23;20004;-58
2022/04/17 13:49:33;;;;;;;0.70;0.70;;;;;;;;;;6207238;23;20557;-58
2022/04/17 13:51:59;;;;;;;0.77;0.77;;;;;;;;;;6208259;23;20350;-58
2022/04/17 13:54:25;;;;;;;0.63;0.63;;;;;;;;;;6207594;23;20075;-58
2022/04/17 13:56:51;;;;;;;0.60;0.60;;;;;;;;;;6208556;23;20005;-58
2022/04/17 13:59:18;;;;;;;0.68;0.68;;;;;;;;;;6206865;23;20107;-58
2022/04/17 14:01:44;;;;;;;0.73;0.70;;;;;;;;;;6206678;23;20535;-58
2022/04/17 14:04:10;;;;;;;0.60;0.60;;;;;;;;;;6206991;23;20008;-58
2022/04/17 14:06:40;;;;;;;0.75;0.75;;;;;;;;;;6207619;23;20050;-58
2022/04/17 14:09:06;;;;;;;0.70;0.65;;;;;;;;;;6207128;23;20004;-58
2022/04/17 14:11:33;;;;;;;0.60;0.60;;;;;;;;;;6208019;23;20036;-58
2022/04/17 14:13:59;;;;;;;0.68;0.68;;;;;;;;;;6207714;23;20009;-58
2022/04/17 14:16:25;;;;;;;0.50;0.50;;;;;;;;;;6207977;23;20009;-58
2022/04/17 14:18:51;;;;;;;0.90;0.77;;;;;;;;;;6207947;23;20436;-61
2022/04/17 14:21:17;;;;;;;0.68;0.65;;;;;;;;;;6207595;23;20346;-58
2022/04/17 14:23:44;;;;;;;1.10;0.80;;;;;;;;;;6207707;23;20004;-58
2022/04/17 14:26:10;;;;;;;0.65;0.63;;;;;;;;;;6207691;23;20008;-58
2022/04/17 14:28:36;;;;;;;0.93;0.80;;;;;;;;;;6207716;23;19996;-57
2022/04/17 14:31:03;;;;;;;1.10;0.57;;;;;;;;;;6207808;23;20005;-57
2022/04/17 14:33:29;;;;;;;0.70;0.70;;;;;;;;;;6207620;23;20439;-58
2022/04/17 14:35:57;;;;;;;0.75;0.70;;;;;;;;;;6207275;23;20001;-58
2022/04/17 14:38:24;;;;;;;0.75;0.75;;;;;;;;;;6207725;23;20005;-58
2022/04/17 14:40:50;;;;;;;0.80;0.80;;;;;;;;;;6208629;23;20012;-51
2022/04/17 14:43:16;;;;;;;0.70;0.70;;;;;;;;;;6206942;23;20015;-51
2022/04/17 14:45:48;;;;;;;0.80;0.73;;;;;;;;;;6207105;23;20008;-50
2022/04/17 14:48:14;;;;;;;0.65;0.65;;;;;;;;;;6207394;23;20009;-51
2022/04/17 14:50:40;;;;;;;1.50;0.65;;;;;;;;;;6207529;23;20036;-51
2022/04/17 14:53:07;;;;;;;0.50;0.50;;;;;;;;;;6207285;23;20001;-49
2022/04/17 14:55:34;;;;;;;0.98;0.65;;;;;;;;;;6207836;23;20036;-52
2022/04/17 14:58:00;;;;;;;0.73;0.65;;;;;;;;;;6207735;23;20405;-52
2022/04/17 15:00:26;;;;;;;0.70;0.70;;;;;;;;;;6208037;23;20054;-51
2022/04/17 15:02:52;;;;;;;0.80;0.80;;;;;;;;;;6208386;23;20007;-52
2022/04/17 15:05:18;;;;;;;0.60;0.60;;;;;;;;;;6207564;23;20063;-51
2022/04/17 15:07:44;;;;;;;0.80;0.80;;;;;;;;;;6207792;23;20446;-51